sensor_id;sensor_type;location;lat;lon;timestamp;P1;durP1;ratioP1;P2;durP2;ratioP2
47289;SDS011;33197;52.524;13.444;2023-02-01T00:02:01;29.98;;;5.50;;
47289;SDS011;33197;52.524;13.444;2023-02-01T00:04:29;23.73;;;5.15;;
47289;SDS011;33197;52.524;13.444;2023-02-01T00:06:57;32.65;;;4.10;;
47289;SDS011;33197;52.524;13.444;2023-02-01T00:09:24;31.92;;;5.82;;
47289;SDS011;33197;52.524;13.444;2023-02-01T00:11:51;46.08;;;6.18;;
47289;SDS011;33197;52.524;13.444;2023-02-01T00:14:19;34.05;;;7.57;;
47289;SDS011;33197;52.524;13.444;2023-02-01T00:16:46;26.58;;;5.05;;
47289;SDS011;33197;52.524;13.444;2023-02-01T00:19:14;34.15;;;5.15;;
47289;SDS011;33197;52.524;13.444;2023-02-01T00:21:41;35.88;;;5.85;;
47289;SDS011;33197;52.524;13.444;2023-02-01T00:24:10;26.15;;;5.88;;
47289;SDS011;33197;52.524;13.444;2023-02-01T00:26:42;24.52;;;5.65;;
47289;SDS011;33197;52.524;13.444;2023-02-01T00:29:11;33.25;;;5.50;;
47289;SDS011;33197;52.524;13.444;2023-02-01T00:31:40;23.17;;;5.72;;
47289;SDS011;33197;52.524;13.444;2023-02-01T00:34:09;27.25;;;4.30;;
47289;SDS011;33197;52.524;13.444;2023-02-01T00:36:38;26.42;;;5.13;;
47289;SDS011;33197;52.524;13.444;2023-02-01T00:39:05;28.20;;;4.75;;
47289;SDS011;33197;52.524;13.444;2023-02-01T00:41:33;27.38;;;5.32;;
47289;SDS011;33197;52.524;13.444;2023-02-01T00:44:00;32.38;;;5.63;;
47289;SDS011;33197;52.524;13.444;2023-02-01T00:46:28;19.80;;;3.53;;
47289;SDS011;33197;52.524;13.444;2023-02-01T00:48:55;32.35;;;4.70;;
47289;SDS011;33197;52.524;13.444;2023-02-01T00:51:23;25.15;;;4.35;;
47289;SDS011;33197;52.524;13.444;2023-02-01T00:53:52;25.90;;;5.18;;
47289;SDS011;33197;52.524;13.444;2023-02-01T00:56:20;31.20;;;5.25;;
47289;SDS011;33197;52.524;13.444;2023-02-01T00:58:47;19.58;;;4.20;;
47289;SDS011;33197;52.524;13.444;2023-02-01T01:01:16;25.98;;;3.97;;
47289;SDS011;33197;52.524;13.444;2023-02-01T01:03:46;18.27;;;3.75;;
47289;SDS011;33197;52.524;13.444;2023-02-01T01:06:19;20.85;;;3.88;;
47289;SDS011;33197;52.524;13.444;2023-02-01T01:08:47;24.63;;;4.10;;
47289;SDS011;33197;52.524;13.444;2023-02-01T01:11:16;13.73;;;3.45;;
47289;SDS011;33197;52.524;13.444;2023-02-01T01:13:48;24.05;;;3.60;;
47289;SDS011;33197;52.524;13.444;2023-02-01T01:16:16;22.33;;;4.35;;
47289;SDS011;33197;52.524;13.444;2023-02-01T01:18:44;18.60;;;4.20;;
47289;SDS011;33197;52.524;13.444;2023-02-01T01:21:12;24.55;;;4.05;;
47289;SDS011;33197;52.524;13.444;2023-02-01T01:23:41;21.30;;;4.22;;
47289;SDS011;33197;52.524;13.444;2023-02-01T01:26:10;21.70;;;3.90;;
47289;SDS011;33197;52.524;13.444;2023-02-01T01:28:40;18.25;;;3.83;;
47289;SDS011;33197;52.524;13.444;2023-02-01T01:31:07;20.33;;;4.95;;
47289;SDS011;33197;52.524;13.444;2023-02-01T01:33:39;21.40;;;3.25;;
47289;SDS011;33197;52.524;13.444;2023-02-01T01:36:07;18.30;;;3.72;;
47289;SDS011;33197;52.524;13.444;2023-02-01T01:38:40;22.92;;;3.83;;
47289;SDS011;33197;52.524;13.444;2023-02-01T01:41:08;21.83;;;4.07;;
47289;SDS011;33197;52.524;13.444;2023-02-01T01:46:20;21.13;;;4.07;;
47289;SDS011;33197;52.524;13.444;2023-02-01T01:48:51;27.58;;;4.68;;
47289;SDS011;33197;52.524;13.444;2023-02-01T01:51:25;23.33;;;4.75;;
47289;SDS011;33197;52.524;13.444;2023-02-01T01:54:06;30.42;;;5.10;;
47289;SDS011;33197;52.524;13.444;2023-02-01T01:56:36;25.30;;;5.03;;
47289;SDS011;33197;52.524;13.444;2023-02-01T01:59:03;23.30;;;4.15;;
47289;SDS011;33197;52.524;13.444;2023-02-01T02:01:32;24.90;;;4.45;;
47289;SDS011;33197;52.524;13.444;2023-02-01T02:03:59;22.70;;;3.58;;
47289;SDS011;33197;52.524;13.444;2023-02-01T02:07:02;19.35;;;3.70;;
47289;SDS011;33197;52.524;13.444;2023-02-01T02:09:24;24.10;;;4.88;;
47289;SDS011;33197;52.524;13.444;2023-02-01T02:11:51;19.25;;;3.42;;
47289;SDS011;33197;52.524;13.444;2023-02-01T02:14:19;37.03;;;5.07;;
47289;SDS011;33197;52.524;13.444;2023-02-01T02:39:36;24.58;;;5.07;;
47289;SDS011;33197;52.524;13.444;2023-02-01T02:42:26;23.83;;;4.90;;
47289;SDS011;33197;52.524;13.444;2023-02-01T02:45:28;25.02;;;4.80;;
47289;SDS011;33197;52.524;13.444;2023-02-01T02:48:25;22.15;;;4.53;;
47289;SDS011;33197;52.524;13.444;2023-02-01T02:51:01;22.30;;;3.90;;
47289;SDS011;33197;52.524;13.444;2023-02-01T02:53:53;28.52;;;4.72;;
47289;SDS011;33197;52.524;13.444;2023-02-01T02:56:52;32.63;;;4.95;;
47289;SDS011;33197;52.524;13.444;2023-02-01T02:59:39;24.17;;;4.28;;
47289;SDS011;33197;52.524;13.444;2023-02-01T03:02:26;24.13;;;3.60;;
47289;SDS011;33197;52.524;13.444;2023-02-01T03:05:13;24.08;;;4.07;;
47289;SDS011;33197;52.524;13.444;2023-02-01T03:11:13;35.13;;;5.57;;
47289;SDS011;33197;52.524;13.444;2023-02-01T03:13:28;24.25;;;5.07;;
47289;SDS011;33197;52.524;13.444;2023-02-01T03:19:06;26.50;;;4.50;;
47289;SDS011;33197;52.524;13.444;2023-02-01T03:27:16;33.70;;;5.93;;
47289;SDS011;33197;52.524;13.444;2023-02-01T03:32:33;24.92;;;5.13;;
47289;SDS011;33197;52.524;13.444;2023-02-01T03:38:25;21.75;;;4.32;;
47289;SDS011;33197;52.524;13.444;2023-02-01T03:41:15;33.92;;;5.22;;
47289;SDS011;33197;52.524;13.444;2023-02-01T03:43:55;27.67;;;5.30;;
47289;SDS011;33197;52.524;13.444;2023-02-01T03:46:29;25.40;;;4.05;;
47289;SDS011;33197;52.524;13.444;2023-02-01T03:49:00;35.72;;;5.10;;
47289;SDS011;33197;52.524;13.444;2023-02-01T03:51:31;26.15;;;5.45;;
47289;SDS011;33197;52.524;13.444;2023-02-01T03:53:59;30.35;;;5.40;;
47289;SDS011;33197;52.524;13.444;2023-02-01T03:56:28;32.05;;;4.93;;
47289;SDS011;33197;52.524;13.444;2023-02-01T03:58:56;25.75;;;4.10;;
47289;SDS011;33197;52.524;13.444;2023-02-01T04:01:28;27.90;;;5.38;;
47289;SDS011;33197;52.524;13.444;2023-02-01T04:03:57;24.30;;;4.50;;
47289;SDS011;33197;52.524;13.444;2023-02-01T04:06:25;31.23;;;5.45;;
47289;SDS011;33197;52.524;13.444;2023-02-01T04:08:52;32.00;;;5.72;;
47289;SDS011;33197;52.524;13.444;2023-02-01T04:11:19;28.92;;;5.65;;
47289;SDS011;33197;52.524;13.444;2023-02-01T04:13:46;28.33;;;4.85;;
47289;SDS011;33197;52.524;13.444;2023-02-01T04:16:13;28.45;;;5.63;;
47289;SDS011;33197;52.524;13.444;2023-02-01T04:18:41;22.75;;;4.70;;
47289;SDS011;33197;52.524;13.444;2023-02-01T04:21:08;22.85;;;5.20;;
47289;SDS011;33197;52.524;13.444;2023-02-01T04:23:35;28.17;;;4.80;;
47289;SDS011;33197;52.524;13.444;2023-02-01T04:26:03;32.40;;;4.65;;
47289;SDS011;33197;52.524;13.444;2023-02-01T04:28:31;29.85;;;4.68;;
47289;SDS011;33197;52.524;13.444;2023-02-01T04:30:58;30.95;;;5.90;;
47289;SDS011;33197;52.524;13.444;2023-02-01T04:33:25;31.70;;;5.13;;
47289;SDS011;33197;52.524;13.444;2023-02-01T04:35:52;20.67;;;4.65;;
47289;SDS011;33197;52.524;13.444;2023-02-01T04:38:20;34.90;;;7.00;;
47289;SDS011;33197;52.524;13.444;2023-02-01T04:40:49;23.65;;;4.75;;
47289;SDS011;33197;52.524;13.444;2023-02-01T04:43:16;29.52;;;5.15;;
47289;SDS011;33197;52.524;13.444;2023-02-01T04:45:47;31.85;;;5.43;;
47289;SDS011;33197;52.524;13.444;2023-02-01T04:48:15;26.05;;;4.95;;
47289;SDS011;33197;52.524;13.444;2023-02-01T04:50:44;23.42;;;5.20;;
47289;SDS011;33197;52.524;13.444;2023-02-01T04:53:14;24.48;;;4.95;;
47289;SDS011;33197;52.524;13.444;2023-02-01T04:55:42;30.15;;;5.65;;
47289;SDS011;33197;52.524;13.444;2023-02-01T04:58:10;22.83;;;4.68;;
47289;SDS011;33197;52.524;13.444;2023-02-01T05:00:37;30.88;;;4.97;;
47289;SDS011;33197;52.524;13.444;2023-02-01T05:03:04;28.85;;;5.60;;
47289;SDS011;33197;52.524;13.444;2023-02-01T05:05:31;30.13;;;5.68;;
47289;SDS011;33197;52.524;13.444;2023-02-01T05:07:59;19.10;;;4.00;;
47289;SDS011;33197;52.524;13.444;2023-02-01T05:10:26;28.05;;;5.45;;
47289;SDS011;33197;52.524;13.444;2023-02-01T05:12:53;31.00;;;6.13;;
47289;SDS011;33197;52.524;13.444;2023-02-01T05:15:38;36.38;;;6.43;;
47289;SDS011;33197;52.524;13.444;2023-02-01T05:18:06;38.65;;;5.45;;
47289;SDS011;33197;52.524;13.444;2023-02-01T05:20:33;20.30;;;4.90;;
47289;SDS011;33197;52.524;13.444;2023-02-01T05:23:00;24.77;;;5.32;;
47289;SDS011;33197;52.524;13.444;2023-02-01T05:25:27;33.17;;;5.00;;
47289;SDS011;33197;52.524;13.444;2023-02-01T05:27:55;23.75;;;5.22;;
47289;SDS011;33197;52.524;13.444;2023-02-01T05:30:22;25.92;;;4.90;;
47289;SDS011;33197;52.524;13.444;2023-02-01T05:32:50;25.95;;;5.97;;
47289;SDS011;33197;52.524;13.444;2023-02-01T05:35:18;26.65;;;4.95;;
47289;SDS011;33197;52.524;13.444;2023-02-01T05:37:46;24.67;;;4.78;;
47289;SDS011;33197;52.524;13.444;2023-02-01T05:40:13;29.30;;;5.47;;
47289;SDS011;33197;52.524;13.444;2023-02-01T05:42:40;34.83;;;6.15;;
47289;SDS011;33197;52.524;13.444;2023-02-01T05:45:07;30.75;;;6.50;;
47289;SDS011;33197;52.524;13.444;2023-02-01T05:47:35;29.85;;;6.00;;
47289;SDS011;33197;52.524;13.444;2023-02-01T05:50:03;23.88;;;4.82;;
47289;SDS011;33197;52.524;13.444;2023-02-01T05:52:31;26.05;;;5.10;;
47289;SDS011;33197;52.524;13.444;2023-02-01T05:54:59;24.33;;;5.50;;
47289;SDS011;33197;52.524;13.444;2023-02-01T05:57:26;33.45;;;5.13;;
47289;SDS011;33197;52.524;13.444;2023-02-01T05:59:53;29.40;;;4.78;;
47289;SDS011;33197;52.524;13.444;2023-02-01T06:02:20;24.20;;;5.28;;
47289;SDS011;33197;52.524;13.444;2023-02-01T06:04:48;24.75;;;5.30;;
47289;SDS011;33197;52.524;13.444;2023-02-01T06:07:15;28.75;;;5.47;;
47289;SDS011;33197;52.524;13.444;2023-02-01T06:09:42;32.33;;;4.68;;
47289;SDS011;33197;52.524;13.444;2023-02-01T06:12:10;27.45;;;5.18;;
47289;SDS011;33197;52.524;13.444;2023-02-01T06:14:37;19.90;;;4.47;;
47289;SDS011;33197;52.524;13.444;2023-02-01T06:17:04;21.73;;;4.13;;
47289;SDS011;33197;52.524;13.444;2023-02-01T06:19:32;30.27;;;4.53;;
47289;SDS011;33197;52.524;13.444;2023-02-01T06:22:00;35.47;;;6.53;;
47289;SDS011;33197;52.524;13.444;2023-02-01T06:24:27;25.10;;;4.65;;
47289;SDS011;33197;52.524;13.444;2023-02-01T06:26:54;24.80;;;5.47;;
47289;SDS011;33197;52.524;13.444;2023-02-01T06:29:21;27.33;;;5.30;;
47289;SDS011;33197;52.524;13.444;2023-02-01T06:31:49;31.38;;;5.72;;
47289;SDS011;33197;52.524;13.444;2023-02-01T06:34:16;27.75;;;5.07;;
47289;SDS011;33197;52.524;13.444;2023-02-01T06:36:43;30.08;;;5.00;;
47289;SDS011;33197;52.524;13.444;2023-02-01T06:39:10;27.20;;;4.65;;
47289;SDS011;33197;52.524;13.444;2023-02-01T06:41:45;24.98;;;5.40;;
47289;SDS011;33197;52.524;13.444;2023-02-01T06:44:15;32.72;;;5.20;;
47289;SDS011;33197;52.524;13.444;2023-02-01T06:46:43;27.35;;;4.82;;
47289;SDS011;33197;52.524;13.444;2023-02-01T06:49:10;31.48;;;5.63;;
47289;SDS011;33197;52.524;13.444;2023-02-01T06:51:37;29.40;;;4.90;;
47289;SDS011;33197;52.524;13.444;2023-02-01T06:54:05;20.48;;;4.57;;
47289;SDS011;33197;52.524;13.444;2023-02-01T06:56:32;21.60;;;5.22;;
47289;SDS011;33197;52.524;13.444;2023-02-01T06:58:59;21.80;;;5.28;;
47289;SDS011;33197;52.524;13.444;2023-02-01T07:01:27;22.33;;;5.28;;
47289;SDS011;33197;52.524;13.444;2023-02-01T07:03:54;26.70;;;5.30;;
47289;SDS011;33197;52.524;13.444;2023-02-01T07:06:21;20.58;;;4.30;;
47289;SDS011;33197;52.524;13.444;2023-02-01T07:08:48;28.33;;;5.30;;
47289;SDS011;33197;52.524;13.444;2023-02-01T07:11:16;25.92;;;4.30;;
47289;SDS011;33197;52.524;13.444;2023-02-01T07:13:45;26.50;;;4.95;;
47289;SDS011;33197;52.524;13.444;2023-02-01T07:16:13;24.83;;;5.43;;
47289;SDS011;33197;52.524;13.444;2023-02-01T07:18:44;28.73;;;5.72;;
47289;SDS011;33197;52.524;13.444;2023-02-01T07:21:12;21.98;;;4.75;;
47289;SDS011;33197;52.524;13.444;2023-02-01T07:23:39;21.48;;;4.60;;
47289;SDS011;33197;52.524;13.444;2023-02-01T07:26:07;26.60;;;4.95;;
47289;SDS011;33197;52.524;13.444;2023-02-01T07:28:36;29.92;;;6.10;;
47289;SDS011;33197;52.524;13.444;2023-02-01T07:31:08;27.00;;;5.05;;
47289;SDS011;33197;52.524;13.444;2023-02-01T07:36:07;21.58;;;4.68;;
47289;SDS011;33197;52.524;13.444;2023-02-01T07:38:38;17.23;;;4.68;;
47289;SDS011;33197;52.524;13.444;2023-02-01T07:41:05;20.63;;;4.57;;
47289;SDS011;33197;52.524;13.444;2023-02-01T07:43:33;30.13;;;4.80;;
47289;SDS011;33197;52.524;13.444;2023-02-01T07:46:01;24.70;;;4.32;;
47289;SDS011;33197;52.524;13.444;2023-02-01T07:48:30;25.55;;;5.05;;
47289;SDS011;33197;52.524;13.444;2023-02-01T07:51:02;17.50;;;4.43;;
47289;SDS011;33197;52.524;13.444;2023-02-01T07:53:31;18.02;;;4.10;;
47289;SDS011;33197;52.524;13.444;2023-02-01T07:55:59;19.48;;;4.65;;
47289;SDS011;33197;52.524;13.444;2023-02-01T07:58:27;21.55;;;4.68;;
47289;SDS011;33197;52.524;13.444;2023-02-01T08:00:56;26.10;;;4.63;;
47289;SDS011;33197;52.524;13.444;2023-02-01T08:03:41;25.67;;;5.18;;
47289;SDS011;33197;52.524;13.444;2023-02-01T08:06:08;21.65;;;4.53;;
47289;SDS011;33197;52.524;13.444;2023-02-01T08:08:36;15.05;;;3.72;;
47289;SDS011;33197;52.524;13.444;2023-02-01T08:11:03;19.80;;;4.05;;
47289;SDS011;33197;52.524;13.444;2023-02-01T08:13:34;14.20;;;3.65;;
47289;SDS011;33197;52.524;13.444;2023-02-01T08:16:03;16.52;;;3.42;;
47289;SDS011;33197;52.524;13.444;2023-02-01T08:18:32;17.65;;;4.43;;
47289;SDS011;33197;52.524;13.444;2023-02-01T08:21:06;20.13;;;4.32;;
47289;SDS011;33197;52.524;13.444;2023-02-01T08:23:35;22.38;;;4.85;;
47289;SDS011;33197;52.524;13.444;2023-02-01T08:26:13;24.27;;;4.30;;
47289;SDS011;33197;52.524;13.444;2023-02-01T08:28:46;20.90;;;4.20;;
47289;SDS011;33197;52.524;13.444;2023-02-01T08:31:16;21.80;;;5.43;;
47289;SDS011;33197;52.524;13.444;2023-02-01T08:33:47;18.23;;;4.63;;
47289;SDS011;33197;52.524;13.444;2023-02-01T08:36:16;11.98;;;3.70;;
47289;SDS011;33197;52.524;13.444;2023-02-01T08:38:44;16.75;;;3.70;;
47289;SDS011;33197;52.524;13.444;2023-02-01T08:41:12;14.43;;;3.70;;
47289;SDS011;33197;52.524;13.444;2023-02-01T08:43:40;13.07;;;3.33;;
47289;SDS011;33197;52.524;13.444;2023-02-01T08:46:08;17.48;;;3.85;;
47289;SDS011;33197;52.524;13.444;2023-02-01T08:48:35;15.55;;;3.55;;
47289;SDS011;33197;52.524;13.444;2023-02-01T08:51:07;16.58;;;4.00;;
47289;SDS011;33197;52.524;13.444;2023-02-01T08:53:36;12.82;;;4.15;;
47289;SDS011;33197;52.524;13.444;2023-02-01T08:56:04;18.85;;;3.65;;
47289;SDS011;33197;52.524;13.444;2023-02-01T08:58:33;10.40;;;3.90;;
47289;SDS011;33197;52.524;13.444;2023-02-01T09:01:07;16.75;;;4.00;;
47289;SDS011;33197;52.524;13.444;2023-02-01T09:03:40;11.85;;;3.92;;
47289;SDS011;33197;52.524;13.444;2023-02-01T09:06:08;16.83;;;4.65;;
47289;SDS011;33197;52.524;13.444;2023-02-01T09:08:39;14.40;;;3.85;;
47289;SDS011;33197;52.524;13.444;2023-02-01T09:11:10;10.20;;;3.55;;
47289;SDS011;33197;52.524;13.444;2023-02-01T09:13:39;11.02;;;3.72;;
47289;SDS011;33197;52.524;13.444;2023-02-01T09:16:06;10.20;;;2.72;;
47289;SDS011;33197;52.524;13.444;2023-02-01T09:18:33;8.73;;;2.85;;
47289;SDS011;33197;52.524;13.444;2023-02-01T09:21:07;14.00;;;3.58;;
47289;SDS011;33197;52.524;13.444;2023-02-01T09:23:34;8.70;;;3.60;;
47289;SDS011;33197;52.524;13.444;2023-02-01T09:26:02;13.30;;;3.50;;
47289;SDS011;33197;52.524;13.444;2023-02-01T09:28:30;8.73;;;3.10;;
47289;SDS011;33197;52.524;13.444;2023-02-01T09:30:58;11.52;;;2.78;;
47289;SDS011;33197;52.524;13.444;2023-02-01T09:33:26;12.68;;;2.67;;
47289;SDS011;33197;52.524;13.444;2023-02-01T09:36:00;11.77;;;1.92;;
47289;SDS011;33197;52.524;13.444;2023-02-01T09:40:58;8.20;;;2.25;;
47289;SDS011;33197;52.524;13.444;2023-02-01T09:46:14;5.85;;;1.73;;
47289;SDS011;33197;52.524;13.444;2023-02-01T09:49:03;8.48;;;1.50;;
47289;SDS011;33197;52.524;13.444;2023-02-01T09:51:42;9.95;;;2.35;;
47289;SDS011;33197;52.524;13.444;2023-02-01T09:54:18;6.40;;;1.60;;
47289;SDS011;33197;52.524;13.444;2023-02-01T09:56:51;8.40;;;1.50;;
47289;SDS011;33197;52.524;13.444;2023-02-01T09:59:41;5.97;;;2.15;;
47289;SDS011;33197;52.524;13.444;2023-02-01T10:02:19;4.20;;;1.50;;
47289;SDS011;33197;52.524;13.444;2023-02-01T10:04:48;6.13;;;1.42;;
47289;SDS011;33197;52.524;13.444;2023-02-01T10:18:02;5.00;;;1.17;;
47289;SDS011;33197;52.524;13.444;2023-02-01T10:26:45;12.15;;;2.08;;
47289;SDS011;33197;52.524;13.444;2023-02-01T10:29:39;8.45;;;2.10;;
47289;SDS011;33197;52.524;13.444;2023-02-01T10:32:20;6.25;;;1.95;;
47289;SDS011;33197;52.524;13.444;2023-02-01T10:34:55;13.65;;;2.60;;
47289;SDS011;33197;52.524;13.444;2023-02-01T10:37:28;9.27;;;2.05;;
47289;SDS011;33197;52.524;13.444;2023-02-01T10:39:56;15.38;;;2.17;;
47289;SDS011;33197;52.524;13.444;2023-02-01T10:42:25;6.88;;;2.33;;
47289;SDS011;33197;52.524;13.444;2023-02-01T10:44:54;10.68;;;2.22;;
47289;SDS011;33197;52.524;13.444;2023-02-01T10:47:23;9.45;;;2.05;;
47289;SDS011;33197;52.524;13.444;2023-02-01T10:50:11;9.90;;;2.08;;
47289;SDS011;33197;52.524;13.444;2023-02-01T10:52:51;14.63;;;2.55;;
47289;SDS011;33197;52.524;13.444;2023-02-01T10:58:12;12.05;;;2.28;;
47289;SDS011;33197;52.524;13.444;2023-02-01T11:03:38;8.17;;;1.77;;
47289;SDS011;33197;52.524;13.444;2023-02-01T11:08:57;10.07;;;2.13;;
47289;SDS011;33197;52.524;13.444;2023-02-01T11:11:27;9.98;;;2.72;;
47289;SDS011;33197;52.524;13.444;2023-02-01T11:13:59;8.38;;;2.13;;
47289;SDS011;33197;52.524;13.444;2023-02-01T11:17:15;6.47;;;1.58;;
47289;SDS011;33197;52.524;13.444;2023-02-01T11:19:21;6.82;;;2.38;;
47289;SDS011;33197;52.524;13.444;2023-02-01T11:21:49;14.05;;;2.85;;
47289;SDS011;33197;52.524;13.444;2023-02-01T11:24:29;12.25;;;2.25;;
47289;SDS011;33197;52.524;13.444;2023-02-01T11:27:00;14.48;;;3.05;;
47289;SDS011;33197;52.524;13.444;2023-02-01T11:29:36;12.82;;;2.45;;
47289;SDS011;33197;52.524;13.444;2023-02-01T11:32:05;14.20;;;2.65;;
47289;SDS011;33197;52.524;13.444;2023-02-01T11:34:38;15.35;;;2.45;;
47289;SDS011;33197;52.524;13.444;2023-02-01T11:37:28;13.68;;;3.28;;
47289;SDS011;33197;52.524;13.444;2023-02-01T11:39:58;15.07;;;3.92;;
47289;SDS011;33197;52.524;13.444;2023-02-01T11:42:27;9.65;;;2.30;;
47289;SDS011;33197;52.524;13.444;2023-02-01T11:47:46;18.20;;;2.88;;
47289;SDS011;33197;52.524;13.444;2023-02-01T11:50:21;12.00;;;2.58;;
47289;SDS011;33197;52.524;13.444;2023-02-01T12:01:21;11.57;;;2.38;;
47289;SDS011;33197;52.524;13.444;2023-02-01T12:09:58;13.05;;;3.20;;
47289;SDS011;33197;52.524;13.444;2023-02-01T12:15:18;10.13;;;2.20;;
47289;SDS011;33197;52.524;13.444;2023-02-01T12:18:08;12.32;;;2.10;;
47289;SDS011;33197;52.524;13.444;2023-02-01T12:29:03;14.27;;;2.40;;
47289;SDS011;33197;52.524;13.444;2023-02-01T12:37:28;12.68;;;2.65;;
47289;SDS011;33197;52.524;13.444;2023-02-01T12:43:11;14.65;;;2.85;;
47289;SDS011;33197;52.524;13.444;2023-02-01T12:45:50;13.60;;;2.95;;
47289;SDS011;33197;52.524;13.444;2023-02-01T12:50:54;11.25;;;2.83;;
47289;SDS011;33197;52.524;13.444;2023-02-01T12:56:16;13.82;;;2.08;;
47289;SDS011;33197;52.524;13.444;2023-02-01T12:58:55;15.13;;;3.28;;
47289;SDS011;33197;52.524;13.444;2023-02-01T13:01:37;14.73;;;2.63;;
47289;SDS011;33197;52.524;13.444;2023-02-01T13:04:20;14.93;;;2.70;;
47289;SDS011;33197;52.524;13.444;2023-02-01T13:06:58;12.82;;;2.67;;
47289;SDS011;33197;52.524;13.444;2023-02-01T13:12:21;15.02;;;3.28;;
47289;SDS011;33197;52.524;13.444;2023-02-01T13:14:53;21.25;;;4.15;;
47289;SDS011;33197;52.524;13.444;2023-02-01T13:17:26;16.88;;;3.13;;
47289;SDS011;33197;52.524;13.444;2023-02-01T13:27:37;9.63;;;2.42;;
47289;SDS011;33197;52.524;13.444;2023-02-01T13:30:06;11.95;;;2.70;;
47289;SDS011;33197;52.524;13.444;2023-02-01T13:43:27;12.35;;;2.17;;
47289;SDS011;33197;52.524;13.444;2023-02-01T13:45:56;11.35;;;2.25;;
47289;SDS011;33197;52.524;13.444;2023-02-01T13:48:39;11.05;;;2.47;;
47289;SDS011;33197;52.524;13.444;2023-02-01T13:51:15;12.77;;;2.38;;
47289;SDS011;33197;52.524;13.444;2023-02-01T13:53:47;14.13;;;3.28;;
47289;SDS011;33197;52.524;13.444;2023-02-01T13:56:16;10.52;;;2.83;;
47289;SDS011;33197;52.524;13.444;2023-02-01T13:58:46;12.52;;;2.80;;
47289;SDS011;33197;52.524;13.444;2023-02-01T14:03:49;10.70;;;2.45;;
47289;SDS011;33197;52.524;13.444;2023-02-01T14:11:42;12.50;;;2.92;;
47289;SDS011;33197;52.524;13.444;2023-02-01T14:19:23;12.32;;;2.85;;
47289;SDS011;33197;52.524;13.444;2023-02-01T14:21:55;13.88;;;2.85;;
47289;SDS011;33197;52.524;13.444;2023-02-01T14:26:55;12.65;;;2.60;;
47289;SDS011;33197;52.524;13.444;2023-02-01T14:29:34;13.25;;;2.88;;
47289;SDS011;33197;52.524;13.444;2023-02-01T14:55:43;14.43;;;3.75;;
47289;SDS011;33197;52.524;13.444;2023-02-01T14:58:18;14.45;;;3.90;;
47289;SDS011;33197;52.524;13.444;2023-02-01T15:00:49;16.42;;;3.30;;
47289;SDS011;33197;52.524;13.444;2023-02-01T15:06:17;20.65;;;3.08;;
47289;SDS011;33197;52.524;13.444;2023-02-01T15:08:49;12.27;;;2.47;;
47289;SDS011;33197;52.524;13.444;2023-02-01T15:11:21;14.05;;;2.70;;
47289;SDS011;33197;52.524;13.444;2023-02-01T15:13:49;10.50;;;2.58;;
47289;SDS011;33197;52.524;13.444;2023-02-01T15:16:21;10.95;;;2.30;;
47289;SDS011;33197;52.524;13.444;2023-02-01T15:19:06;12.90;;;2.58;;
47289;SDS011;33197;52.524;13.444;2023-02-01T15:21:43;18.25;;;2.50;;
47289;SDS011;33197;52.524;13.444;2023-02-01T15:24:13;9.88;;;2.25;;
47289;SDS011;33197;52.524;13.444;2023-02-01T15:27:02;8.75;;;2.03;;
47289;SDS011;33197;52.524;13.444;2023-02-01T15:29:31;6.85;;;1.95;;
47289;SDS011;33197;52.524;13.444;2023-02-01T15:32:05;5.90;;;1.23;;
47289;SDS011;33197;52.524;13.444;2023-02-01T15:34:49;6.50;;;1.55;;
47289;SDS011;33197;52.524;13.444;2023-02-01T15:37:16;4.78;;;1.60;;
47289;SDS011;33197;52.524;13.444;2023-02-01T15:42:47;2.55;;;1.20;;
47289;SDS011;33197;52.524;13.444;2023-02-01T15:45:17;4.10;;;1.33;;
47289;SDS011;33197;52.524;13.444;2023-02-01T15:47:47;3.03;;;1.08;;
47289;SDS011;33197;52.524;13.444;2023-02-01T15:50:16;3.55;;;0.85;;
47289;SDS011;33197;52.524;13.444;2023-02-01T15:52:49;3.97;;;1.20;;
47289;SDS011;33197;52.524;13.444;2023-02-01T15:55:30;2.67;;;0.70;;
47289;SDS011;33197;52.524;13.444;2023-02-01T15:58:07;2.33;;;0.80;;
47289;SDS011;33197;52.524;13.444;2023-02-01T16:00:43;2.95;;;1.02;;
47289;SDS011;33197;52.524;13.444;2023-02-01T16:03:32;7.90;;;1.73;;
47289;SDS011;33197;52.524;13.444;2023-02-01T16:06:26;4.28;;;1.25;;
47289;SDS011;33197;52.524;13.444;2023-02-01T16:08:59;3.55;;;1.17;;
47289;SDS011;33197;52.524;13.444;2023-02-01T16:11:33;4.03;;;1.40;;
47289;SDS011;33197;52.524;13.444;2023-02-01T16:14:08;1.63;;;0.98;;
47289;SDS011;33197;52.524;13.444;2023-02-01T16:16:35;2.47;;;1.02;;
47289;SDS011;33197;52.524;13.444;2023-02-01T16:19:06;3.42;;;0.90;;
47289;SDS011;33197;52.524;13.444;2023-02-01T16:21:34;2.15;;;0.60;;
47289;SDS011;33197;52.524;13.444;2023-02-01T16:24:02;0.85;;;0.65;;
47289;SDS011;33197;52.524;13.444;2023-02-01T16:26:31;2.15;;;1.02;;
47289;SDS011;33197;52.524;13.444;2023-02-01T16:28:59;1.27;;;0.70;;
47289;SDS011;33197;52.524;13.444;2023-02-01T16:31:30;1.77;;;0.60;;
47289;SDS011;33197;52.524;13.444;2023-02-01T16:33:59;2.10;;;0.90;;
47289;SDS011;33197;52.524;13.444;2023-02-01T16:36:27;2.67;;;0.90;;
47289;SDS011;33197;52.524;13.444;2023-02-01T16:38:55;2.47;;;1.02;;
47289;SDS011;33197;52.524;13.444;2023-02-01T16:41:23;1.65;;;0.70;;
47289;SDS011;33197;52.524;13.444;2023-02-01T16:43:53;1.30;;;0.73;;
47289;SDS011;33197;52.524;13.444;2023-02-01T16:46:22;1.83;;;0.88;;
47289;SDS011;33197;52.524;13.444;2023-02-01T16:48:53;2.45;;;1.02;;
47289;SDS011;33197;52.524;13.444;2023-02-01T16:51:21;1.65;;;1.00;;
47289;SDS011;33197;52.524;13.444;2023-02-01T16:53:51;0.90;;;0.80;;
47289;SDS011;33197;52.524;13.444;2023-02-01T16:56:24;0.93;;;0.70;;
47289;SDS011;33197;52.524;13.444;2023-02-01T16:58:56;0.88;;;0.70;;
47289;SDS011;33197;52.524;13.444;2023-02-01T17:01:24;1.58;;;0.82;;
47289;SDS011;33197;52.524;13.444;2023-02-01T17:03:52;3.03;;;0.80;;
47289;SDS011;33197;52.524;13.444;2023-02-01T17:06:20;1.55;;;0.77;;
47289;SDS011;33197;52.524;13.444;2023-02-01T17:08:50;2.45;;;1.20;;
47289;SDS011;33197;52.524;13.444;2023-02-01T17:11:19;1.40;;;0.80;;
47289;SDS011;33197;52.524;13.444;2023-02-01T17:13:46;2.38;;;1.05;;
47289;SDS011;33197;52.524;13.444;2023-02-01T17:19:02;3.60;;;1.30;;
47289;SDS011;33197;52.524;13.444;2023-02-01T17:21:34;3.55;;;1.17;;
47289;SDS011;33197;52.524;13.444;2023-02-01T17:24:05;5.68;;;1.73;;
47289;SDS011;33197;52.524;13.444;2023-02-01T17:26:33;8.95;;;1.95;;
47289;SDS011;33197;52.524;13.444;2023-02-01T17:29:00;4.38;;;2.00;;
47289;SDS011;33197;52.524;13.444;2023-02-01T17:31:28;8.80;;;1.50;;
47289;SDS011;33197;52.524;13.444;2023-02-01T17:33:55;4.22;;;1.58;;
47289;SDS011;33197;52.524;13.444;2023-02-01T17:36:22;7.43;;;1.48;;
47289;SDS011;33197;52.524;13.444;2023-02-01T17:38:50;9.63;;;2.45;;
47289;SDS011;33197;52.524;13.444;2023-02-01T17:41:31;5.03;;;1.55;;
47289;SDS011;33197;52.524;13.444;2023-02-01T17:43:58;7.55;;;1.70;;
47289;SDS011;33197;52.524;13.444;2023-02-01T17:46:26;12.18;;;2.20;;
47289;SDS011;33197;52.524;13.444;2023-02-01T17:48:54;8.23;;;1.60;;
47289;SDS011;33197;52.524;13.444;2023-02-01T17:51:22;8.38;;;2.05;;
47289;SDS011;33197;52.524;13.444;2023-02-01T17:53:51;9.27;;;1.73;;
47289;SDS011;33197;52.524;13.444;2023-02-01T17:56:19;4.38;;;1.88;;